createdAt,value
2017-08-14T00:01:14.616Z,9.3
2017-08-14T00:02:33.272Z,9.2
2017-08-14T00:03:51.909Z,9.2
2017-08-14T00:05:10.549Z,9.2
2017-08-14T00:06:29.231Z,9.2
2017-08-14T00:07:47.907Z,9.3
2017-08-14T00:09:06.544Z,9.3
2017-08-14T00:10:25.190Z,9.3
2017-08-14T00:11:43.872Z,9.4
2017-08-14T00:13:02.550Z,9.4
2017-08-14T00:14:21.211Z,9.4
2017-08-14T00:15:39.857Z,9.4
2017-08-14T00:16:58.514Z,9.4
2017-08-14T00:18:17.165Z,9.4
2017-08-14T00:19:35.823Z,9.4
2017-08-14T00:20:54.495Z,9.4
2017-08-14T00:22:13.194Z,9.4
2017-08-14T00:23:31.864Z,9.4
2017-08-14T00:24:50.522Z,9.4
2017-08-14T00:26:09.218Z,9.4
2017-08-14T00:27:27.865Z,9.4
2017-08-14T00:28:46.541Z,9.4
2017-08-14T00:30:05.213Z,9.4
2017-08-14T00:31:23.856Z,9.4
2017-08-14T00:32:42.548Z,9.3
2017-08-14T00:34:01.202Z,9.3
2017-08-14T00:35:19.850Z,9.4
2017-08-14T00:36:38.533Z,9.4
2017-08-14T00:37:57.176Z,9.5
2017-08-14T00:39:15.826Z,9.6
2017-08-14T00:40:34.472Z,9.6
2017-08-14T00:41:53.130Z,9.7
2017-08-14T00:43:11.821Z,9.7
2017-08-14T00:44:30.474Z,9.8
2017-08-14T00:45:49.135Z,9.9
2017-08-14T00:47:07.795Z,10
2017-08-14T00:48:26.507Z,10
2017-08-14T00:49:45.183Z,10.1
2017-08-14T00:51:03.843Z,10.1
2017-08-14T00:52:22.500Z,10.1
2017-08-14T00:53:41.158Z,10.1
2017-08-14T00:54:59.830Z,10
2017-08-14T00:56:18.482Z,10
2017-08-14T00:57:37.126Z,9.9
2017-08-14T00:58:55.764Z,9.9
2017-08-14T01:00:14.420Z,9.8
2017-08-14T01:01:33.058Z,9.8
2017-08-14T01:02:51.696Z,9.9
2017-08-14T01:04:10.329Z,9.9
2017-08-14T01:05:28.989Z,9.9
2017-08-14T01:06:47.646Z,9.8
2017-08-14T01:08:06.282Z,9.8
2017-08-14T01:09:24.921Z,9.8
2017-08-14T01:10:43.582Z,9.8
2017-08-14T01:12:02.234Z,9.7
2017-08-14T01:13:20.867Z,9.7
2017-08-14T01:14:39.511Z,9.7
2017-08-14T01:15:58.162Z,9.8
2017-08-14T01:17:16.822Z,9.8
2017-08-14T01:18:35.502Z,9.8
2017-08-14T01:19:54.172Z,9.9
2017-08-14T01:21:12.845Z,9.9
2017-08-14T01:22:31.514Z,9.9
2017-08-14T01:23:50.206Z,9.9
2017-08-14T01:25:08.897Z,9.9
2017-08-14T01:26:27.613Z,10
2017-08-14T01:27:46.315Z,10.1
2017-08-14T01:29:05.020Z,10.1
2017-08-14T01:30:23.681Z,10.1
2017-08-14T01:31:42.346Z,10.2
2017-08-14T01:33:01.005Z,10.3
2017-08-14T01:34:19.658Z,10.4
2017-08-14T01:35:38.318Z,10.4
2017-08-14T01:36:56.992Z,10.5
2017-08-14T01:38:15.657Z,10.5
2017-08-14T01:39:34.333Z,10.6
2017-08-14T01:40:52.985Z,10.6
2017-08-14T01:42:11.691Z,10.7
2017-08-14T01:43:30.371Z,10.7
2017-08-14T01:44:49.057Z,10.7
2017-08-14T01:46:07.709Z,10.7
2017-08-14T01:47:26.428Z,10.8
2017-08-14T01:48:45.106Z,10.8
2017-08-14T01:50:03.758Z,10.8
2017-08-14T01:51:22.488Z,10.8
2017-08-14T01:52:41.156Z,10.8
2017-08-14T01:53:59.812Z,10.8
2017-08-14T01:55:18.481Z,10.8
2017-08-14T01:56:37.166Z,10.8
2017-08-14T01:57:55.842Z,10.8
2017-08-14T01:59:14.547Z,10.8
2017-08-14T02:00:33.223Z,10.8
2017-08-14T02:01:51.931Z,10.8
2017-08-14T02:03:10.597Z,10.8
2017-08-14T02:04:29.256Z,10.9
2017-08-14T02:05:47.919Z,10.9
2017-08-14T02:07:06.598Z,10.9
2017-08-14T02:08:25.273Z,10.9
2017-08-14T02:09:43.967Z,11
2017-08-14T02:11:02.665Z,10.9
2017-08-14T02:12:21.343Z,10.9
2017-08-14T02:13:40.021Z,10.9
2017-08-14T02:14:58.686Z,10.9
2017-08-14T02:16:17.371Z,10.9
2017-08-14T02:17:36.021Z,10.9
2017-08-14T02:18:54.721Z,11
2017-08-14T02:20:13.376Z,11
2017-08-14T02:21:32.037Z,11
2017-08-14T02:22:50.687Z,11
2017-08-14T02:24:09.354Z,10.9
2017-08-14T02:25:28.062Z,10.9
2017-08-14T02:26:46.731Z,10.9
2017-08-14T02:28:05.390Z,10.9
2017-08-14T02:29:24.084Z,10.9
2017-08-14T02:30:42.737Z,10.9
2017-08-14T02:32:01.419Z,10.9
2017-08-14T02:33:20.102Z,10.9
2017-08-14T02:34:38.839Z,10.9
2017-08-14T02:35:57.506Z,10.9
2017-08-14T02:37:16.173Z,10.9
2017-08-14T02:38:34.825Z,10.9
2017-08-14T02:39:53.494Z,10.8
2017-08-14T02:41:12.229Z,10.8
2017-08-14T02:42:30.875Z,10.8
2017-08-14T02:43:49.541Z,10.8
2017-08-14T02:45:08.215Z,10.8
2017-08-14T02:46:26.863Z,10.8
2017-08-14T02:47:45.537Z,10.8
2017-08-14T02:49:04.194Z,10.8
2017-08-14T02:50:22.864Z,10.8
2017-08-14T02:51:41.519Z,10.8
2017-08-14T02:53:00.178Z,10.7
2017-08-14T02:54:18.885Z,10.7
2017-08-14T02:55:37.557Z,10.7
2017-08-14T02:56:56.250Z,10.6
2017-08-14T02:58:14.906Z,10.6
2017-08-14T02:59:33.577Z,10.6
2017-08-14T03:00:52.256Z,10.5
2017-08-14T03:02:10.916Z,10.5
2017-08-14T03:03:29.574Z,10.5
2017-08-14T03:04:48.228Z,10.4
2017-08-14T03:06:06.889Z,10.4
2017-08-14T03:07:25.588Z,10.4
2017-08-14T03:08:44.248Z,10.4
2017-08-14T03:10:02.903Z,10.4
2017-08-14T03:11:21.573Z,10.4
2017-08-14T03:12:40.236Z,10.4
2017-08-14T03:13:58.891Z,10.4
2017-08-14T03:15:17.545Z,10.4
2017-08-14T03:16:36.281Z,10.5
2017-08-14T03:17:54.931Z,10.4
2017-08-14T03:19:13.671Z,10.4
2017-08-14T03:20:32.327Z,10.4
2017-08-14T03:21:51.022Z,10.3
2017-08-14T03:23:09.670Z,10.2
2017-08-14T03:24:28.338Z,10.1
2017-08-14T03:25:47.064Z,10.1
2017-08-14T03:27:05.788Z,10
2017-08-14T03:28:24.452Z,10
2017-08-14T03:29:43.088Z,9.9
2017-08-14T03:31:01.761Z,9.8
2017-08-14T03:32:20.411Z,9.8
2017-08-14T03:33:39.050Z,9.7
2017-08-14T03:34:57.687Z,9.6
2017-08-14T03:36:16.366Z,9.6
2017-08-14T03:37:35.030Z,9.6
2017-08-14T03:38:53.696Z,9.6
2017-08-14T03:40:12.345Z,9.6
2017-08-14T03:41:31.044Z,9.6
2017-08-14T03:42:49.753Z,9.5
2017-08-14T03:44:08.467Z,9.5
2017-08-14T03:45:27.108Z,9.5
2017-08-14T03:46:45.775Z,9.5
2017-08-14T03:48:04.479Z,9.5
2017-08-14T03:49:23.115Z,9.6
2017-08-14T03:50:41.794Z,9.6
2017-08-14T03:52:00.439Z,9.6
2017-08-14T03:53:19.100Z,9.6
2017-08-14T03:54:37.789Z,9.6
2017-08-14T03:55:56.425Z,9.6
2017-08-14T03:57:15.067Z,9.8
2017-08-14T03:58:33.723Z,9.8
2017-08-14T03:59:52.358Z,9.9
2017-08-14T04:01:11.015Z,10
2017-08-14T04:02:29.667Z,10
2017-08-14T04:03:48.343Z,10.1
2017-08-14T04:05:06.996Z,10.1
2017-08-14T04:06:25.658Z,10.2
2017-08-14T04:07:44.361Z,10.2
2017-08-14T04:09:03.069Z,10.2
2017-08-14T04:10:21.769Z,10.2
2017-08-14T04:11:40.451Z,10.2
2017-08-14T04:12:59.103Z,10.1
2017-08-14T04:14:17.771Z,10.1
2017-08-14T04:15:36.422Z,10.1
2017-08-14T04:16:55.108Z,10.1
2017-08-14T04:18:13.760Z,10.1
2017-08-14T04:19:32.468Z,10.1
2017-08-14T04:20:51.126Z,10.1
2017-08-14T04:22:09.793Z,10.1
2017-08-14T04:23:28.500Z,10.2
2017-08-14T04:24:47.173Z,10.2
2017-08-14T04:26:05.857Z,10.2
2017-08-14T04:27:24.518Z,10.3
2017-08-14T04:28:43.240Z,10.3
2017-08-14T04:30:01.963Z,10.3
2017-08-14T04:31:20.616Z,10.3
2017-08-14T04:32:39.319Z,10.4
2017-08-14T04:33:57.976Z,10.4
2017-08-14T04:35:16.693Z,10.4
2017-08-14T04:36:35.402Z,10.4
2017-08-14T04:37:54.076Z,10.5
2017-08-14T04:39:12.759Z,10.5
2017-08-14T04:40:31.426Z,10.5
2017-08-14T04:41:50.083Z,10.6
2017-08-14T04:43:08.740Z,10.6
2017-08-14T04:44:27.397Z,10.6
2017-08-14T04:45:46.132Z,10.6
2017-08-14T04:47:04.838Z,10.6
2017-08-14T04:48:23.498Z,10.7
2017-08-14T04:49:42.159Z,10.7
2017-08-14T04:51:00.843Z,10.7
2017-08-14T04:52:19.506Z,10.8
2017-08-14T04:53:38.240Z,10.8
2017-08-14T04:54:56.915Z,10.9
2017-08-14T04:56:15.604Z,10.9
2017-08-14T04:57:34.314Z,10.9
2017-08-14T04:58:53.027Z,10.9
2017-08-14T05:00:11.706Z,10.9
2017-08-14T05:01:30.385Z,10.8
2017-08-14T05:02:49.040Z,10.8
2017-08-14T05:04:07.698Z,10.7
2017-08-14T05:05:26.381Z,10.7
2017-08-14T05:06:45.035Z,10.7
2017-08-14T05:08:03.694Z,10.7
2017-08-14T05:09:22.352Z,10.6
2017-08-14T05:10:41.021Z,10.6
2017-08-14T05:11:59.705Z,10.7
2017-08-14T05:13:18.372Z,10.9
2017-08-14T05:14:37.030Z,11
2017-08-14T05:15:55.738Z,11
2017-08-14T05:17:14.394Z,11.1
2017-08-14T05:18:33.069Z,11.2
2017-08-14T05:19:51.717Z,11.3
2017-08-14T05:21:10.396Z,11.4
2017-08-14T05:22:29.069Z,11.5
2017-08-14T05:23:47.719Z,11.6
2017-08-14T05:25:06.366Z,11.7
2017-08-14T05:26:25.019Z,11.8
2017-08-14T05:27:43.742Z,11.8
2017-08-14T05:29:02.453Z,11.9
2017-08-14T05:30:21.116Z,11.9
2017-08-14T05:31:39.771Z,11.9
2017-08-14T05:32:58.466Z,11.9
2017-08-14T05:34:17.132Z,11.9
2017-08-14T05:35:35.792Z,11.9
2017-08-14T05:36:54.509Z,11.9
2017-08-14T05:38:13.219Z,11.9
2017-08-14T05:39:31.883Z,12
2017-08-14T05:40:50.541Z,12
2017-08-14T05:42:09.195Z,12.1
2017-08-14T05:43:27.897Z,12.1
2017-08-14T05:44:46.553Z,12.2
2017-08-14T05:46:05.201Z,12.2
2017-08-14T05:47:23.906Z,12.3
2017-08-14T05:48:42.573Z,12.3
2017-08-14T05:50:01.276Z,12.4
2017-08-14T05:51:19.924Z,12.4
2017-08-14T05:52:38.575Z,12.5
2017-08-14T05:53:57.250Z,12.5
2017-08-14T05:55:15.901Z,12.6
2017-08-14T05:56:34.556Z,12.6
2017-08-14T05:57:53.213Z,12.6
2017-08-14T05:59:11.926Z,12.7
2017-08-14T06:00:30.634Z,12.7
2017-08-14T06:01:49.331Z,12.8
2017-08-14T06:03:08.017Z,12.9
2017-08-14T06:04:26.688Z,12.9
2017-08-14T06:05:45.395Z,13
2017-08-14T06:07:04.047Z,13
2017-08-14T06:08:22.698Z,13
2017-08-14T06:09:41.404Z,13.1
2017-08-14T06:11:00.113Z,13.2
2017-08-14T06:12:18.765Z,13.2
2017-08-14T06:13:37.427Z,13.2
2017-08-14T06:14:56.099Z,13.3
2017-08-14T06:16:14.757Z,13.3
2017-08-14T06:17:33.460Z,13.3
2017-08-14T06:18:52.129Z,13.3
2017-08-14T06:20:10.793Z,13.4
2017-08-14T06:21:29.490Z,13.4
2017-08-14T06:22:48.139Z,13.5
2017-08-14T06:24:06.812Z,13.6
2017-08-14T06:25:25.512Z,13.6
2017-08-14T06:26:44.225Z,13.7
2017-08-14T06:28:02.960Z,13.7
2017-08-14T06:29:21.606Z,13.8
2017-08-14T06:30:40.280Z,13.8
2017-08-14T06:31:58.964Z,13.8
2017-08-14T06:33:17.625Z,13.9
2017-08-14T06:34:36.362Z,14
2017-08-14T06:35:55.036Z,14.1
2017-08-14T06:37:13.687Z,14.1
2017-08-14T06:38:32.389Z,14.1
2017-08-14T06:39:51.039Z,14.1
2017-08-14T06:41:09.735Z,14.2
2017-08-14T06:42:28.421Z,14.3
2017-08-14T06:43:47.129Z,14.3
2017-08-14T06:45:05.840Z,14.4
2017-08-14T06:46:24.547Z,14.5
2017-08-14T06:47:43.203Z,14.5
2017-08-14T06:49:01.867Z,14.6
2017-08-14T06:50:20.518Z,14.6
2017-08-14T06:51:39.245Z,14.7
2017-08-14T06:52:57.923Z,14.8
2017-08-14T06:54:16.581Z,14.8
2017-08-14T06:55:35.245Z,14.8
2017-08-14T06:56:53.920Z,14.8
2017-08-14T06:58:12.623Z,14.9
2017-08-14T06:59:31.274Z,15
2017-08-14T07:00:49.988Z,15.1
2017-08-14T07:02:08.666Z,15.1
2017-08-14T07:03:27.318Z,15.2
2017-08-14T07:04:45.978Z,15.3
2017-08-14T07:06:04.652Z,15.3
2017-08-14T07:07:23.324Z,15.3
2017-08-14T07:08:41.983Z,15.4
2017-08-14T07:10:00.636Z,15.5
2017-08-14T07:11:19.298Z,15.6
2017-08-14T07:12:37.968Z,15.7
2017-08-14T07:13:56.682Z,15.7
2017-08-14T07:15:15.345Z,15.9
2017-08-14T07:16:34.054Z,15.9
2017-08-14T07:17:52.748Z,16
2017-08-14T07:19:11.410Z,16
2017-08-14T07:20:30.080Z,16.1
2017-08-14T07:21:48.784Z,16.1
2017-08-14T07:23:07.478Z,16.2
2017-08-14T07:24:26.138Z,16.2
2017-08-14T07:25:44.790Z,16.2
2017-08-14T07:27:03.487Z,16.3
2017-08-14T07:28:22.168Z,16.3
2017-08-14T07:29:40.831Z,16.3
2017-08-14T07:30:59.489Z,16.4
2017-08-14T07:32:18.145Z,16.6
2017-08-14T07:33:36.813Z,16.6
2017-08-14T07:34:55.469Z,16.7
2017-08-14T07:36:14.118Z,16.6
2017-08-14T07:37:32.778Z,16.6
2017-08-14T07:38:51.453Z,16.6
2017-08-14T07:40:10.111Z,16.7
2017-08-14T07:41:28.780Z,16.8
2017-08-14T07:42:47.513Z,16.8
2017-08-14T07:44:06.250Z,16.9
2017-08-14T07:45:24.906Z,16.9
2017-08-14T07:46:43.559Z,16.9
2017-08-14T07:48:02.279Z,17
2017-08-14T07:49:20.985Z,17.1
2017-08-14T07:50:39.671Z,17.1
2017-08-14T07:51:58.330Z,17.1
2017-08-14T07:53:16.983Z,17.2
2017-08-14T07:54:35.656Z,17.3
2017-08-14T07:55:54.367Z,17.4
2017-08-14T07:57:13.072Z,17.5
2017-08-14T07:58:31.727Z,17.5
2017-08-14T07:59:50.404Z,17.5
2017-08-14T08:01:09.095Z,17.5
2017-08-14T08:02:27.786Z,17.5
2017-08-14T08:03:46.438Z,17.5
2017-08-14T08:05:05.113Z,17.6
2017-08-14T08:06:23.822Z,17.7
2017-08-14T08:07:42.507Z,17.7
2017-08-14T08:09:01.205Z,17.8
2017-08-14T08:10:19.880Z,17.8
2017-08-14T08:11:38.539Z,17.9
2017-08-14T08:12:57.194Z,17.9
2017-08-14T08:14:15.879Z,17.8
2017-08-14T08:15:34.606Z,17.9
2017-08-14T08:16:53.267Z,17.9
2017-08-14T08:18:11.974Z,18
2017-08-14T08:19:30.634Z,18.1
2017-08-14T08:20:49.307Z,18.1
2017-08-14T08:22:07.995Z,18.1
2017-08-14T08:23:26.645Z,18.1
2017-08-14T08:24:45.340Z,18.2
2017-08-14T08:26:04.007Z,18.2
2017-08-14T08:27:22.711Z,18.2
2017-08-14T08:28:41.401Z,18.2
2017-08-14T08:30:00.111Z,18.2
2017-08-14T08:31:18.794Z,18.3
2017-08-14T08:32:37.522Z,18.4
2017-08-14T08:33:56.175Z,18.4
2017-08-14T08:35:14.831Z,18.5
2017-08-14T08:36:33.552Z,18.6
2017-08-14T08:37:52.235Z,18.6
2017-08-14T08:39:10.886Z,18.7
2017-08-14T08:40:29.540Z,18.7
2017-08-14T08:41:48.268Z,18.8
2017-08-14T08:43:06.919Z,18.8
2017-08-14T08:44:25.581Z,18.7
2017-08-14T08:45:44.234Z,18.7
2017-08-14T08:47:02.957Z,18.7
2017-08-14T08:48:21.669Z,18.8
2017-08-14T08:49:40.376Z,18.8
2017-08-14T08:50:59.067Z,18.8
2017-08-14T08:52:17.750Z,18.8
2017-08-14T08:53:36.404Z,18.9
2017-08-14T08:54:55.098Z,18.9
2017-08-14T08:56:13.749Z,18.9
2017-08-14T08:57:32.437Z,18.9
2017-08-14T08:58:51.098Z,19
2017-08-14T09:00:09.752Z,19
2017-08-14T09:01:28.429Z,19
2017-08-14T09:02:47.118Z,19
2017-08-14T09:04:05.825Z,19
2017-08-14T09:05:24.533Z,19.1
2017-08-14T09:06:43.207Z,19.1
2017-08-14T09:08:01.874Z,19.2
2017-08-14T09:09:20.583Z,19.2
2017-08-14T09:10:39.235Z,19.3
2017-08-14T09:11:57.888Z,19.3
2017-08-14T09:13:16.615Z,19.4
2017-08-14T09:14:35.297Z,19.5
2017-08-14T09:15:54.004Z,19.5
2017-08-14T09:17:12.690Z,19.5
2017-08-14T09:18:31.368Z,19.5
2017-08-14T09:19:50.027Z,19.5
2017-08-14T09:21:08.684Z,19.6
2017-08-14T09:22:27.353Z,19.6
2017-08-14T09:23:46.019Z,19.6
2017-08-14T09:25:04.718Z,19.7
2017-08-14T09:26:23.387Z,19.7
2017-08-14T09:27:42.066Z,19.7
2017-08-14T09:29:00.740Z,19.7
2017-08-14T09:30:19.404Z,19.7
2017-08-14T09:31:38.102Z,19.7
2017-08-14T09:32:56.756Z,19.7
2017-08-14T09:34:15.484Z,19.7
2017-08-14T09:35:34.142Z,19.7
2017-08-14T09:36:52.835Z,19.7
2017-08-14T09:38:11.539Z,19.8
2017-08-14T09:39:30.222Z,19.8
2017-08-14T09:40:48.885Z,19.8
2017-08-14T09:42:07.545Z,19.8
2017-08-14T09:43:26.204Z,19.9
2017-08-14T09:44:44.881Z,20
2017-08-14T09:46:03.551Z,20.1
2017-08-14T09:47:22.219Z,20.1
2017-08-14T09:48:40.876Z,20.2
2017-08-14T09:49:59.559Z,20.2
2017-08-14T09:51:18.225Z,20.3
2017-08-14T09:52:36.905Z,20.4
2017-08-14T09:53:55.613Z,20.5
2017-08-14T09:55:14.287Z,20.6
2017-08-14T09:56:32.943Z,20.7
2017-08-14T09:57:51.603Z,20.8
2017-08-14T09:59:10.267Z,20.8
2017-08-14T10:00:28.949Z,20.9
2017-08-14T10:01:47.601Z,21
2017-08-14T10:03:06.311Z,21
2017-08-14T10:04:24.982Z,21.1
2017-08-14T10:05:43.648Z,21.2
2017-08-14T10:07:02.316Z,21.2
2017-08-14T10:08:20.971Z,21.3
2017-08-14T10:09:39.625Z,21.3
2017-08-14T10:10:58.301Z,21.4
2017-08-14T10:12:16.976Z,21.4
2017-08-14T10:13:35.669Z,21.4
2017-08-14T10:14:54.366Z,21.5
2017-08-14T10:16:13.048Z,21.5
2017-08-14T10:17:31.705Z,21.6
2017-08-14T10:18:50.395Z,21.7
2017-08-14T10:20:09.102Z,21.8
2017-08-14T10:21:27.826Z,21.6
2017-08-14T10:22:46.478Z,21.3
2017-08-14T10:24:05.129Z,21.3
2017-08-14T10:25:23.804Z,21.4
2017-08-14T10:26:42.507Z,21.6
2017-08-14T10:28:01.163Z,21.8
2017-08-14T10:29:19.821Z,21.8
2017-08-14T10:30:38.478Z,21.8
2017-08-14T10:31:57.172Z,21.9
2017-08-14T10:33:15.838Z,22
2017-08-14T10:34:34.490Z,22.1
2017-08-14T10:35:53.150Z,22.1
2017-08-14T10:37:11.854Z,22.1
2017-08-14T10:38:30.520Z,22
2017-08-14T10:39:49.201Z,22
2017-08-14T10:41:07.887Z,22.1
2017-08-14T10:42:26.591Z,22.2
2017-08-14T10:43:45.315Z,22.4
2017-08-14T10:45:03.975Z,22.8
2017-08-14T10:46:22.637Z,23.1
2017-08-14T10:47:41.326Z,23.7
2017-08-14T10:49:00.012Z,24.2
2017-08-14T10:50:18.670Z,24.7
2017-08-14T10:51:37.381Z,25.3
2017-08-14T10:52:56.055Z,26
2017-08-14T10:54:14.730Z,26.6
2017-08-14T10:55:33.396Z,26.9
2017-08-14T10:56:52.059Z,27
2017-08-14T10:58:10.734Z,26.9
2017-08-14T10:59:29.426Z,26.7
2017-08-14T11:00:48.086Z,26.9
2017-08-14T11:02:06.814Z,27.1
2017-08-14T11:03:25.527Z,27.2
2017-08-14T11:04:44.179Z,27.3
2017-08-14T11:06:02.836Z,27.2
2017-08-14T11:07:21.554Z,27.3
2017-08-14T11:08:40.234Z,27.3
2017-08-14T11:09:58.892Z,27.1
2017-08-14T11:11:17.569Z,26.8
2017-08-14T11:12:36.230Z,26.7
2017-08-14T11:13:54.928Z,26.8
2017-08-14T11:15:13.596Z,26.9
2017-08-14T11:16:32.246Z,27
2017-08-14T11:17:50.904Z,27.2
2017-08-14T11:19:09.577Z,27.3
2017-08-14T11:20:28.242Z,27.3
2017-08-14T11:21:46.897Z,27.4
2017-08-14T11:23:05.605Z,27.4
2017-08-14T11:24:24.283Z,27.3
2017-08-14T11:25:42.972Z,27.1
2017-08-14T11:27:01.654Z,27.2
2017-08-14T11:28:20.364Z,27.3
2017-08-14T11:29:39.041Z,27.4
2017-08-14T11:30:57.696Z,27.7
2017-08-14T11:32:16.354Z,28
2017-08-14T11:33:35.092Z,28.2
2017-08-14T11:34:53.835Z,28.2
2017-08-14T11:36:12.502Z,28.3
2017-08-14T11:37:31.155Z,28.3
2017-08-14T11:38:49.807Z,28.2
2017-08-14T11:40:08.535Z,28
2017-08-14T11:41:27.199Z,27.8
2017-08-14T11:42:45.913Z,27.8
2017-08-14T11:44:04.567Z,28.2
2017-08-14T11:45:23.243Z,28.8
2017-08-14T11:46:41.944Z,29
2017-08-14T11:48:00.602Z,28.8
2017-08-14T11:49:19.260Z,28.7
2017-08-14T11:50:37.936Z,28.8
2017-08-14T11:51:56.624Z,29.4
2017-08-14T11:53:15.279Z,30.3
2017-08-14T11:54:33.944Z,33.7
2017-08-14T11:55:52.625Z,34.8
2017-08-14T11:57:11.356Z,35.3
2017-08-14T11:58:30.065Z,35.7
2017-08-14T11:59:48.721Z,35.3
2017-08-14T12:01:07.443Z,34.9
2017-08-14T12:02:26.100Z,34.6
2017-08-14T12:03:44.755Z,34.4
2017-08-14T12:05:03.415Z,34.1
2017-08-14T12:06:22.100Z,34.8
2017-08-14T12:07:40.813Z,35.1
2017-08-14T12:08:59.468Z,34.8
2017-08-14T12:10:18.151Z,35.2
2017-08-14T12:11:36.835Z,35.3
2017-08-14T12:12:55.489Z,35.4
2017-08-14T12:14:14.145Z,35.5
2017-08-14T12:15:32.810Z,35.5
2017-08-14T12:16:51.546Z,35.5
2017-08-14T12:18:10.231Z,35.4
2017-08-14T12:19:28.885Z,35
2017-08-14T12:20:47.540Z,35.2
2017-08-14T12:22:06.218Z,35.5
2017-08-14T12:23:24.886Z,35.9
2017-08-14T12:24:43.588Z,35.5
2017-08-14T12:26:02.261Z,35.1
2017-08-14T12:27:20.948Z,34.7
2017-08-14T12:28:39.641Z,34.5
2017-08-14T12:29:58.301Z,34.3
2017-08-14T12:31:16.985Z,33.4
2017-08-14T12:32:35.659Z,32.8
2017-08-14T12:33:54.346Z,32.7
2017-08-14T12:35:13.004Z,32.7
2017-08-14T12:36:31.696Z,32
2017-08-14T12:37:50.393Z,32.4
2017-08-14T12:39:09.079Z,34.2
2017-08-14T12:40:27.735Z,35
2017-08-14T12:41:46.420Z,35.6
2017-08-14T12:43:05.092Z,35.2
2017-08-14T12:44:23.791Z,34.8
2017-08-14T12:45:42.445Z,34.6
2017-08-14T12:47:01.117Z,35.1
2017-08-14T12:48:19.856Z,35.6
2017-08-14T12:49:38.527Z,35.8
2017-08-14T12:50:57.221Z,36.2
2017-08-14T12:52:15.881Z,36.3
2017-08-14T12:53:34.558Z,36.3
2017-08-14T12:54:53.215Z,36.2
2017-08-14T12:56:11.871Z,36.4
2017-08-14T12:57:30.573Z,36.6
2017-08-14T12:58:49.251Z,36.6
2017-08-14T13:00:07.903Z,36.6
2017-08-14T13:01:26.593Z,36.6
2017-08-14T13:02:45.250Z,36.6
2017-08-14T13:04:03.919Z,36.5
2017-08-14T13:05:22.568Z,36.4
2017-08-14T13:06:41.286Z,36.4
2017-08-14T13:07:59.944Z,36.1
2017-08-14T13:09:18.619Z,35.8
2017-08-14T13:10:37.281Z,35.4
2017-08-14T13:11:55.936Z,35.1
2017-08-14T13:13:14.673Z,34.7
2017-08-14T13:14:33.396Z,34.5
2017-08-14T13:15:52.110Z,34.3
2017-08-14T13:17:10.790Z,33.6
2017-08-14T13:18:29.474Z,32.7
2017-08-14T13:19:48.147Z,32.1
2017-08-14T13:21:06.802Z,31.6
2017-08-14T13:22:25.501Z,31.1
2017-08-14T13:23:44.188Z,30.8
2017-08-14T13:25:02.863Z,30.5
2017-08-14T13:26:21.517Z,30.2
2017-08-14T13:27:40.184Z,30.1
2017-08-14T13:28:58.839Z,30.1
2017-08-14T13:30:17.514Z,30.1
2017-08-14T13:31:36.196Z,30.3
2017-08-14T13:32:54.858Z,30.7
2017-08-14T13:34:13.510Z,32.9
2017-08-14T13:35:32.188Z,33.1
2017-08-14T13:36:50.848Z,34.4
2017-08-14T13:38:09.536Z,34.7
2017-08-14T13:39:28.199Z,35
2017-08-14T13:40:46.874Z,35.6
2017-08-14T13:42:05.525Z,36.1
2017-08-14T13:43:24.185Z,36.3
2017-08-14T13:44:42.838Z,36.5
2017-08-14T13:46:01.553Z,36.6
2017-08-14T13:47:20.208Z,36.7
2017-08-14T13:48:38.866Z,36.8
2017-08-14T13:49:57.524Z,36.8
2017-08-14T13:51:16.228Z,36.6
2017-08-14T13:52:34.937Z,35.7
2017-08-14T13:53:53.594Z,35.1
2017-08-14T13:55:12.253Z,34.7
2017-08-14T13:56:30.944Z,34.4
2017-08-14T13:57:49.598Z,33.7
2017-08-14T13:59:08.248Z,32.6
2017-08-14T14:00:26.904Z,31.7
2017-08-14T14:01:45.582Z,31.1
2017-08-14T14:03:04.241Z,30.8
2017-08-14T14:04:22.944Z,30.7
2017-08-14T14:05:41.607Z,32
2017-08-14T14:07:00.287Z,34.6
2017-08-14T14:08:18.941Z,34.6
2017-08-14T14:09:37.624Z,35.4
2017-08-14T14:10:56.334Z,35.8
2017-08-14T14:12:15.012Z,36.2
2017-08-14T14:13:33.714Z,36.4
2017-08-14T14:14:52.397Z,36.7
2017-08-14T14:16:11.085Z,36.9
2017-08-14T14:17:29.806Z,37
2017-08-14T14:18:48.467Z,37
2017-08-14T14:20:07.178Z,36.7
2017-08-14T14:21:25.859Z,36.2
2017-08-14T14:22:44.582Z,35.6
2017-08-14T14:24:03.265Z,35.8
2017-08-14T14:25:21.952Z,36.3
2017-08-14T14:26:40.607Z,36.4
2017-08-14T14:27:59.352Z,36
2017-08-14T14:29:18.013Z,35.4
2017-08-14T14:30:36.722Z,34.9
2017-08-14T14:31:55.381Z,34.6
2017-08-14T14:33:14.046Z,34.4
2017-08-14T14:34:32.710Z,34.6
2017-08-14T14:35:51.375Z,35.4
2017-08-14T14:37:10.037Z,36
2017-08-14T14:38:28.708Z,35.8
2017-08-14T14:39:47.371Z,35.3
2017-08-14T14:41:06.082Z,34.9
2017-08-14T14:42:24.745Z,34.6
2017-08-14T14:43:43.469Z,34.4
2017-08-14T14:45:02.136Z,34.3
2017-08-14T14:46:20.856Z,34.4
2017-08-14T14:47:39.537Z,34.4
2017-08-14T14:48:58.250Z,34.4
2017-08-14T14:50:16.915Z,34.3
2017-08-14T14:51:35.577Z,34.3
2017-08-14T14:52:54.270Z,33.9
2017-08-14T14:54:12.935Z,33.4
2017-08-14T14:55:31.595Z,32.9
2017-08-14T14:56:50.297Z,32.8
2017-08-14T14:58:08.966Z,32.7
2017-08-14T14:59:27.638Z,32.7
2017-08-14T15:00:46.301Z,32.8
2017-08-14T15:02:04.959Z,32.7
2017-08-14T15:03:23.620Z,32.6
2017-08-14T15:04:42.343Z,32.6
2017-08-14T15:06:01.005Z,32.2
2017-08-14T15:07:19.666Z,32
2017-08-14T15:08:38.346Z,31.8
2017-08-14T15:09:57.021Z,31.6
2017-08-14T15:11:15.720Z,31.1
2017-08-14T15:12:34.419Z,30.7
2017-08-14T15:13:53.075Z,30.3
2017-08-14T15:15:11.742Z,30.3
2017-08-14T15:16:30.395Z,30.4
2017-08-14T15:17:49.130Z,30.6
2017-08-14T15:19:07.784Z,30.7
2017-08-14T15:20:26.456Z,30.8
2017-08-14T15:21:45.120Z,30.8
2017-08-14T15:23:03.815Z,30.8
2017-08-14T15:24:22.472Z,30.6
2017-08-14T15:25:41.154Z,30.5
2017-08-14T15:26:59.849Z,30.4
2017-08-14T15:28:18.518Z,30.4
2017-08-14T15:29:37.209Z,30.1
2017-08-14T15:30:56.085Z,29.9
2017-08-14T15:32:14.765Z,29.9
2017-08-14T15:33:33.421Z,29.7
2017-08-14T15:34:52.075Z,29.5
2017-08-14T15:36:10.773Z,29.1
2017-08-14T15:37:29.428Z,28.9
2017-08-14T15:38:48.116Z,28.8
2017-08-14T15:40:06.768Z,28.7
2017-08-14T15:41:25.456Z,28.8
2017-08-14T15:42:44.164Z,28.8
2017-08-14T15:44:02.818Z,28.7
2017-08-14T15:45:21.479Z,28.7
2017-08-14T15:46:40.198Z,28.6
2017-08-14T15:47:58.896Z,28.5
2017-08-14T15:49:17.604Z,28.4
2017-08-14T15:50:36.248Z,28.3
2017-08-14T15:51:54.925Z,28.1
2017-08-14T15:53:13.583Z,27.8
2017-08-14T15:54:32.237Z,27.7
2017-08-14T15:55:50.892Z,27.7
2017-08-14T15:57:09.571Z,27.7
2017-08-14T15:58:28.230Z,27.7
2017-08-14T15:59:46.892Z,27.6
2017-08-14T16:01:05.601Z,27.5
2017-08-14T16:02:24.275Z,27.3
2017-08-14T16:03:42.987Z,27
2017-08-14T16:05:01.648Z,26.8
2017-08-14T16:06:20.350Z,26.5
2017-08-14T16:07:39.056Z,26.3
2017-08-14T16:08:57.710Z,26
2017-08-14T16:10:16.381Z,25.9
2017-08-14T16:11:35.068Z,25.7
2017-08-14T16:12:53.744Z,25.5
2017-08-14T16:14:12.401Z,25.5
2017-08-14T16:15:31.056Z,25.4
2017-08-14T16:16:49.725Z,25.5
2017-08-14T16:18:08.474Z,25.4
2017-08-14T16:19:27.130Z,25.3
2017-08-14T16:20:45.791Z,25.1
2017-08-14T16:22:04.498Z,24.9
2017-08-14T16:23:23.180Z,24.8
2017-08-14T16:24:41.837Z,24.7
2017-08-14T16:26:00.544Z,24.6
2017-08-14T16:27:19.205Z,24.6
2017-08-14T16:28:37.895Z,24.6
2017-08-14T16:29:56.557Z,24.6
2017-08-14T16:31:15.218Z,24.5
2017-08-14T16:32:33.877Z,24.3
2017-08-14T16:33:52.551Z,24.1
2017-08-14T16:35:11.214Z,24
2017-08-14T16:36:29.866Z,23.9
2017-08-14T16:37:48.525Z,23.9
2017-08-14T16:39:07.208Z,23.9
2017-08-14T16:40:25.861Z,23.9
2017-08-14T16:41:44.529Z,23.9
2017-08-14T16:43:03.177Z,23.9
2017-08-14T16:44:21.849Z,23.9
2017-08-14T16:45:40.523Z,23.9
2017-08-14T16:46:59.176Z,23.9
2017-08-14T16:48:17.869Z,23.9
2017-08-14T16:49:36.537Z,24
2017-08-14T16:50:55.212Z,24
2017-08-14T16:52:13.867Z,24
2017-08-14T16:53:32.545Z,24
2017-08-14T16:54:51.265Z,24
2017-08-14T16:56:09.921Z,24
2017-08-14T16:57:28.634Z,24
2017-08-14T16:58:47.292Z,23.9
2017-08-14T17:00:06.017Z,23.8
2017-08-14T17:01:24.686Z,23.8
2017-08-14T17:02:43.346Z,23.8
2017-08-14T17:04:02.001Z,23.8
2017-08-14T17:05:20.677Z,23.8
2017-08-14T17:06:39.337Z,23.7
2017-08-14T17:07:57.994Z,23.7
2017-08-14T17:09:16.701Z,23.7
2017-08-14T17:10:35.413Z,23.6
2017-08-14T17:11:54.121Z,23.6
2017-08-14T17:13:12.798Z,23.6
2017-08-14T17:14:31.452Z,23.6
2017-08-14T17:15:50.169Z,23.6
2017-08-14T17:17:08.859Z,23.5
2017-08-14T17:18:27.560Z,23.5
2017-08-14T17:19:46.216Z,23.5
2017-08-14T17:21:04.888Z,23.4
2017-08-14T17:22:23.618Z,23.3
2017-08-14T17:23:42.331Z,23.2
2017-08-14T17:25:00.984Z,23.1
2017-08-14T17:26:19.653Z,23.1
2017-08-14T17:27:38.333Z,23.1
2017-08-14T17:28:56.992Z,23
2017-08-14T17:30:15.651Z,22.9
2017-08-14T17:31:34.324Z,22.9
2017-08-14T17:32:52.984Z,22.8
2017-08-14T17:34:11.644Z,22.8
2017-08-14T17:35:30.318Z,22.7
2017-08-14T17:36:48.986Z,22.7